sensor_id;sensor_type;location;lat;lon;timestamp;temperature;humidity
21646;DHT22;10984;45.712;4.800;2023-03-21T00:01:28;6.60;99.90
21646;DHT22;10984;45.712;4.800;2023-03-21T00:03:53;6.60;99.90
21646;DHT22;10984;45.712;4.800;2023-03-21T00:06:19;6.60;99.90
21646;DHT22;10984;45.712;4.800;2023-03-21T00:08:45;6.60;99.90
21646;DHT22;10984;45.712;4.800;2023-03-21T00:11:11;6.50;99.90
21646;DHT22;10984;45.712;4.800;2023-03-21T00:13:38;6.50;99.90
21646;DHT22;10984;45.712;4.800;2023-03-21T00:16:12;6.50;99.90
21646;DHT22;10984;45.712;4.800;2023-03-21T00:21:28;6.50;99.90
21646;DHT22;10984;45.712;4.800;2023-03-21T00:23:57;6.40;99.90
21646;DHT22;10984;45.712;4.800;2023-03-21T00:26:23;6.30;99.90
21646;DHT22;10984;45.712;4.800;2023-03-21T00:28:48;6.30;99.90
21646;DHT22;10984;45.712;4.800;2023-03-21T00:31:15;6.30;99.90
21646;DHT22;10984;45.712;4.800;2023-03-21T00:33:40;6.30;99.90
21646;DHT22;10984;45.712;4.800;2023-03-21T00:36:08;6.40;99.90
21646;DHT22;10984;45.712;4.800;2023-03-21T00:38:34;6.40;99.90
21646;DHT22;10984;45.712;4.800;2023-03-21T00:41:05;6.40;99.90
21646;DHT22;10984;45.712;4.800;2023-03-21T00:43:31;6.40;99.90
21646;DHT22;10984;45.712;4.800;2023-03-21T00:45:58;6.40;99.90
21646;DHT22;10984;45.712;4.800;2023-03-21T00:48:24;6.30;99.90
21646;DHT22;10984;45.712;4.800;2023-03-21T00:50:53;6.30;99.90
21646;DHT22;10984;45.712;4.800;2023-03-21T00:53:19;6.10;99.90
21646;DHT22;10984;45.712;4.800;2023-03-21T00:55:45;6.20;99.90
21646;DHT22;10984;45.712;4.800;2023-03-21T00:58:11;6.10;99.90
21646;DHT22;10984;45.712;4.800;2023-03-21T01:00:37;6.10;99.90
21646;DHT22;10984;45.712;4.800;2023-03-21T01:03:05;6.10;99.90
21646;DHT22;10984;45.712;4.800;2023-03-21T01:05:51;6.00;99.90
21646;DHT22;10984;45.712;4.800;2023-03-21T01:08:37;5.90;99.90
21646;DHT22;10984;45.712;4.800;2023-03-21T01:11:07;5.90;99.90
21646;DHT22;10984;45.712;4.800;2023-03-21T01:13:33;5.80;99.90
21646;DHT22;10984;45.712;4.800;2023-03-21T01:15:59;5.80;99.90
21646;DHT22;10984;45.712;4.800;2023-03-21T01:18:27;5.80;99.90
21646;DHT22;10984;45.712;4.800;2023-03-21T01:20:55;5.80;99.90
21646;DHT22;10984;45.712;4.800;2023-03-21T01:23:21;5.70;99.90
21646;DHT22;10984;45.712;4.800;2023-03-21T01:25:49;5.80;99.90
21646;DHT22;10984;45.712;4.800;2023-03-21T01:28:15;5.80;99.90
21646;DHT22;10984;45.712;4.800;2023-03-21T01:31:00;5.80;99.90
21646;DHT22;10984;45.712;4.800;2023-03-21T01:33:26;5.80;99.90
21646;DHT22;10984;45.712;4.800;2023-03-21T01:35:52;5.80;99.90
21646;DHT22;10984;45.712;4.800;2023-03-21T01:38:18;5.80;99.90
21646;DHT22;10984;45.712;4.800;2023-03-21T01:40:46;5.70;99.90
21646;DHT22;10984;45.712;4.800;2023-03-21T01:49:39;5.70;99.90
21646;DHT22;10984;45.712;4.800;2023-03-21T01:52:12;5.70;99.90
21646;DHT22;10984;45.712;4.800;2023-03-21T01:54:42;5.60;99.90
21646;DHT22;10984;45.712;4.800;2023-03-21T01:57:12;5.60;99.90
21646;DHT22;10984;45.712;4.800;2023-03-21T02:00:00;5.60;99.90
21646;DHT22;10984;45.712;4.800;2023-03-21T02:02:35;5.60;99.90
21646;DHT22;10984;45.712;4.800;2023-03-21T02:05:02;5.60;99.90
21646;DHT22;10984;45.712;4.800;2023-03-21T02:07:33;5.60;99.90
21646;DHT22;10984;45.712;4.800;2023-03-21T02:12:45;5.60;99.90
21646;DHT22;10984;45.712;4.800;2023-03-21T02:15:11;5.60;99.90
21646;DHT22;10984;45.712;4.800;2023-03-21T02:17:57;5.50;99.90
21646;DHT22;10984;45.712;4.800;2023-03-21T02:42:13;5.30;99.90
21646;DHT22;10984;45.712;4.800;2023-03-21T02:44:45;5.30;99.90
21646;DHT22;10984;45.712;4.800;2023-03-21T02:53:03;5.30;99.90
21646;DHT22;10984;45.712;4.800;2023-03-21T02:55:31;5.30;99.90
21646;DHT22;10984;45.712;4.800;2023-03-21T02:57:58;5.30;99.90
21646;DHT22;10984;45.712;4.800;2023-03-21T03:00:30;5.30;99.90
21646;DHT22;10984;45.712;4.800;2023-03-21T03:02:57;5.30;99.90
21646;DHT22;10984;45.712;4.800;2023-03-21T03:14:17;5.20;99.90
21646;DHT22;10984;45.712;4.800;2023-03-21T03:23:03;4.90;99.90
21646;DHT22;10984;45.712;4.800;2023-03-21T03:28:41;4.80;99.90
21646;DHT22;10984;45.712;4.800;2023-03-21T03:31:11;4.80;99.90
21646;DHT22;10984;45.712;4.800;2023-03-21T03:33:41;4.80;99.90
21646;DHT22;10984;45.712;4.800;2023-03-21T03:36:10;4.70;99.90
21646;DHT22;10984;45.712;4.800;2023-03-21T03:38:37;4.70;99.90
21646;DHT22;10984;45.712;4.800;2023-03-21T03:41:09;4.60;99.90
21646;DHT22;10984;45.712;4.800;2023-03-21T03:46:55;4.60;99.90
21646;DHT22;10984;45.712;4.800;2023-03-21T03:49:25;4.50;99.90
21646;DHT22;10984;45.712;4.800;2023-03-21T03:54:39;4.60;99.90
21646;DHT22;10984;45.712;4.800;2023-03-21T03:57:07;4.60;99.90
21646;DHT22;10984;45.712;4.800;2023-03-21T03:59:35;4.70;99.90
21646;DHT22;10984;45.712;4.800;2023-03-21T04:02:01;4.70;99.90
21646;DHT22;10984;45.712;4.800;2023-03-21T04:04:27;4.70;99.90
21646;DHT22;10984;45.712;4.800;2023-03-21T04:06:53;4.60;99.90
21646;DHT22;10984;45.712;4.800;2023-03-21T04:09:18;4.60;99.90
21646;DHT22;10984;45.712;4.800;2023-03-21T04:11:44;4.50;99.90
21646;DHT22;10984;45.712;4.800;2023-03-21T04:14:10;4.40;99.90
21646;DHT22;10984;45.712;4.800;2023-03-21T04:16:36;4.40;99.90
21646;DHT22;10984;45.712;4.800;2023-03-21T04:19:03;4.40;99.90
21646;DHT22;10984;45.712;4.800;2023-03-21T04:21:29;4.30;99.90
21646;DHT22;10984;45.712;4.800;2023-03-21T04:23:55;4.30;99.90
21646;DHT22;10984;45.712;4.800;2023-03-21T04:26:21;4.30;99.90
21646;DHT22;10984;45.712;4.800;2023-03-21T04:28:48;4.30;99.90
21646;DHT22;10984;45.712;4.800;2023-03-21T04:31:13;4.20;99.90
21646;DHT22;10984;45.712;4.800;2023-03-21T04:33:40;4.20;99.90
21646;DHT22;10984;45.712;4.800;2023-03-21T04:36:06;4.20;99.90
21646;DHT22;10984;45.712;4.800;2023-03-21T04:38:34;4.20;99.90
21646;DHT22;10984;45.712;4.800;2023-03-21T04:41:01;4.10;99.90
21646;DHT22;10984;45.712;4.800;2023-03-21T04:43:27;4.10;99.90
21646;DHT22;10984;45.712;4.800;2023-03-21T04:45:53;4.10;99.90
21646;DHT22;10984;45.712;4.800;2023-03-21T04:48:19;4.10;99.90
21646;DHT22;10984;45.712;4.800;2023-03-21T04:50:49;4.10;99.90
21646;DHT22;10984;45.712;4.800;2023-03-21T04:53:15;4.10;99.90
21646;DHT22;10984;45.712;4.800;2023-03-21T04:55:40;4.00;99.90
21646;DHT22;10984;45.712;4.800;2023-03-21T04:58:06;4.00;99.90
21646;DHT22;10984;45.712;4.800;2023-03-21T05:00:32;4.00;99.90
21646;DHT22;10984;45.712;4.800;2023-03-21T05:03:03;4.00;99.90
21646;DHT22;10984;45.712;4.800;2023-03-21T05:05:36;4.10;99.90
21646;DHT22;10984;45.712;4.800;2023-03-21T05:08:02;4.10;99.90
21646;DHT22;10984;45.712;4.800;2023-03-21T05:10:28;4.10;99.90
21646;DHT22;10984;45.712;4.800;2023-03-21T05:12:53;4.10;99.90
21646;DHT22;10984;45.712;4.800;2023-03-21T05:15:19;4.10;99.90
21646;DHT22;10984;45.712;4.800;2023-03-21T05:17:45;4.10;99.90
21646;DHT22;10984;45.712;4.800;2023-03-21T05:20:13;4.10;99.90
21646;DHT22;10984;45.712;4.800;2023-03-21T05:22:40;4.00;99.90
21646;DHT22;10984;45.712;4.800;2023-03-21T05:25:08;3.90;99.90
21646;DHT22;10984;45.712;4.800;2023-03-21T05:27:34;3.90;99.90
21646;DHT22;10984;45.712;4.800;2023-03-21T05:32:45;4.00;99.90
21646;DHT22;10984;45.712;4.800;2023-03-21T05:35:11;4.00;99.90
21646;DHT22;10984;45.712;4.800;2023-03-21T05:37:37;3.90;99.90
21646;DHT22;10984;45.712;4.800;2023-03-21T05:40:04;3.90;99.90
21646;DHT22;10984;45.712;4.800;2023-03-21T05:42:33;3.90;99.90
21646;DHT22;10984;45.712;4.800;2023-03-21T05:44:59;3.90;99.90
21646;DHT22;10984;45.712;4.800;2023-03-21T05:47:25;3.90;99.90
21646;DHT22;10984;45.712;4.800;2023-03-21T05:49:51;4.00;99.90
21646;DHT22;10984;45.712;4.800;2023-03-21T05:52:17;4.00;99.90
21646;DHT22;10984;45.712;4.800;2023-03-21T05:54:42;4.00;99.90
21646;DHT22;10984;45.712;4.800;2023-03-21T05:57:08;4.00;99.90
21646;DHT22;10984;45.712;4.800;2023-03-21T05:59:34;4.10;99.90
21646;DHT22;10984;45.712;4.800;2023-03-21T06:02:00;4.10;99.90
21646;DHT22;10984;45.712;4.800;2023-03-21T06:04:26;4.10;99.90
21646;DHT22;10984;45.712;4.800;2023-03-21T06:06:52;4.20;99.90
21646;DHT22;10984;45.712;4.800;2023-03-21T06:09:19;4.20;99.90
21646;DHT22;10984;45.712;4.800;2023-03-21T06:11:47;4.30;99.90
21646;DHT22;10984;45.712;4.800;2023-03-21T06:14:14;4.40;99.90
21646;DHT22;10984;45.712;4.800;2023-03-21T06:16:40;4.50;99.90
21646;DHT22;10984;45.712;4.800;2023-03-21T06:19:05;4.60;99.90
21646;DHT22;10984;45.712;4.800;2023-03-21T06:21:31;4.70;99.90
21646;DHT22;10984;45.712;4.800;2023-03-21T06:23:57;4.90;99.90
21646;DHT22;10984;45.712;4.800;2023-03-21T06:26:22;5.00;99.90
21646;DHT22;10984;45.712;4.800;2023-03-21T06:28:49;5.20;99.90
21646;DHT22;10984;45.712;4.800;2023-03-21T06:31:15;5.30;99.90
21646;DHT22;10984;45.712;4.800;2023-03-21T06:33:40;5.40;99.90
21646;DHT22;10984;45.712;4.800;2023-03-21T06:36:07;5.50;99.90
21646;DHT22;10984;45.712;4.800;2023-03-21T06:38:33;5.70;99.90
21646;DHT22;10984;45.712;4.800;2023-03-21T06:41:03;5.90;99.90
21646;DHT22;10984;45.712;4.800;2023-03-21T06:43:29;6.00;99.90
21646;DHT22;10984;45.712;4.800;2023-03-21T06:45:56;6.10;99.90
21646;DHT22;10984;45.712;4.800;2023-03-21T06:48:21;6.30;99.90
21646;DHT22;10984;45.712;4.800;2023-03-21T06:50:48;6.50;99.90
21646;DHT22;10984;45.712;4.800;2023-03-21T06:53:15;6.70;99.90
21646;DHT22;10984;45.712;4.800;2023-03-21T06:55:41;6.80;99.90
21646;DHT22;10984;45.712;4.800;2023-03-21T06:58:07;6.90;99.90
21646;DHT22;10984;45.712;4.800;2023-03-21T07:00:32;6.90;99.90
21646;DHT22;10984;45.712;4.800;2023-03-21T07:02:58;7.00;99.90
21646;DHT22;10984;45.712;4.800;2023-03-21T07:05:26;7.20;99.90
21646;DHT22;10984;45.712;4.800;2023-03-21T07:07:52;7.40;99.90
21646;DHT22;10984;45.712;4.800;2023-03-21T07:10:17;7.50;99.90
21646;DHT22;10984;45.712;4.800;2023-03-21T07:12:43;7.50;99.90
21646;DHT22;10984;45.712;4.800;2023-03-21T07:15:09;7.70;99.90
21646;DHT22;10984;45.712;4.800;2023-03-21T07:17:35;7.60;99.90
21646;DHT22;10984;45.712;4.800;2023-03-21T07:20:01;7.50;99.90
21646;DHT22;10984;45.712;4.800;2023-03-21T07:22:31;7.70;99.90
21646;DHT22;10984;45.712;4.800;2023-03-21T07:24:56;8.00;99.90
21646;DHT22;10984;45.712;4.800;2023-03-21T07:27:22;8.00;99.90
21646;DHT22;10984;45.712;4.800;2023-03-21T07:29:47;8.20;99.90
21646;DHT22;10984;45.712;4.800;2023-03-21T07:32:14;8.50;99.90
21646;DHT22;10984;45.712;4.800;2023-03-21T07:34:41;8.70;99.90
21646;DHT22;10984;45.712;4.800;2023-03-21T07:37:06;8.90;99.90
21646;DHT22;10984;45.712;4.800;2023-03-21T07:39:32;9.20;99.90
21646;DHT22;10984;45.712;4.800;2023-03-21T07:41:59;9.30;99.90
21646;DHT22;10984;45.712;4.800;2023-03-21T07:44:26;9.20;99.90
21646;DHT22;10984;45.712;4.800;2023-03-21T07:46:51;9.30;99.90
21646;DHT22;10984;45.712;4.800;2023-03-21T07:49:17;9.40;99.90
21646;DHT22;10984;45.712;4.800;2023-03-21T07:51:43;9.40;99.90
21646;DHT22;10984;45.712;4.800;2023-03-21T07:54:08;9.60;99.90
21646;DHT22;10984;45.712;4.800;2023-03-21T07:56:34;9.70;99.90
21646;DHT22;10984;45.712;4.800;2023-03-21T07:59:00;9.70;99.90
21646;DHT22;10984;45.712;4.800;2023-03-21T08:01:26;9.90;99.90
21646;DHT22;10984;45.712;4.800;2023-03-21T08:03:52;10.10;99.90
21646;DHT22;10984;45.712;4.800;2023-03-21T08:06:21;10.20;99.90
21646;DHT22;10984;45.712;4.800;2023-03-21T08:08:47;10.40;99.90
21646;DHT22;10984;45.712;4.800;2023-03-21T08:11:13;10.60;99.90
21646;DHT22;10984;45.712;4.800;2023-03-21T08:13:40;10.70;99.90
21646;DHT22;10984;45.712;4.800;2023-03-21T08:16:06;10.80;99.90
21646;DHT22;10984;45.712;4.800;2023-03-21T08:18:33;11.00;99.90
21646;DHT22;10984;45.712;4.800;2023-03-21T08:20:58;10.90;99.90
21646;DHT22;10984;45.712;4.800;2023-03-21T08:23:24;11.00;99.90
21646;DHT22;10984;45.712;4.800;2023-03-21T08:26:09;11.00;99.90
21646;DHT22;10984;45.712;4.800;2023-03-21T08:28:35;10.80;99.90
21646;DHT22;10984;45.712;4.800;2023-03-21T08:31:11;11.00;99.90
21646;DHT22;10984;45.712;4.800;2023-03-21T08:33:38;10.90;99.90
21646;DHT22;10984;45.712;4.800;2023-03-21T08:36:05;11.00;99.90
21646;DHT22;10984;45.712;4.800;2023-03-21T08:38:31;11.10;99.90
21646;DHT22;10984;45.712;4.800;2023-03-21T08:40:58;11.20;99.90
21646;DHT22;10984;45.712;4.800;2023-03-21T08:43:25;11.40;99.90
21646;DHT22;10984;45.712;4.800;2023-03-21T08:45:51;11.60;99.90
21646;DHT22;10984;45.712;4.800;2023-03-21T08:48:17;11.60;99.90
21646;DHT22;10984;45.712;4.800;2023-03-21T08:50:43;11.90;99.90
21646;DHT22;10984;45.712;4.800;2023-03-21T08:53:09;11.80;99.90
21646;DHT22;10984;45.712;4.800;2023-03-21T08:55:35;11.70;99.90
21646;DHT22;10984;45.712;4.800;2023-03-21T08:58:02;11.80;99.90
21646;DHT22;10984;45.712;4.800;2023-03-21T09:00:28;11.80;99.90
21646;DHT22;10984;45.712;4.800;2023-03-21T09:02:54;12.00;99.90
21646;DHT22;10984;45.712;4.800;2023-03-21T09:05:22;12.10;99.90
21646;DHT22;10984;45.712;4.800;2023-03-21T09:07:49;12.10;99.90
21646;DHT22;10984;45.712;4.800;2023-03-21T09:10:19;12.30;99.90
21646;DHT22;10984;45.712;4.800;2023-03-21T09:12:46;12.40;99.90
21646;DHT22;10984;45.712;4.800;2023-03-21T09:15:12;12.30;99.90
21646;DHT22;10984;45.712;4.800;2023-03-21T09:17:39;12.60;99.90
21646;DHT22;10984;45.712;4.800;2023-03-21T09:20:25;12.40;99.90
21646;DHT22;10984;45.712;4.800;2023-03-21T09:22:55;12.10;99.90
21646;DHT22;10984;45.712;4.800;2023-03-21T09:25:22;12.30;99.90
21646;DHT22;10984;45.712;4.800;2023-03-21T09:27:49;12.30;99.90
21646;DHT22;10984;45.712;4.800;2023-03-21T09:30:18;12.40;99.90
21646;DHT22;10984;45.712;4.800;2023-03-21T09:32:45;12.50;99.90
21646;DHT22;10984;45.712;4.800;2023-03-21T09:37:57;12.70;99.90
21646;DHT22;10984;45.712;4.800;2023-03-21T09:54:53;13.00;99.90
21646;DHT22;10984;45.712;4.800;2023-03-21T09:57:40;13.20;99.90
21646;DHT22;10984;45.712;4.800;2023-03-21T10:00:14;13.30;99.90
21646;DHT22;10984;45.712;4.800;2023-03-21T10:02:51;13.40;99.90
21646;DHT22;10984;45.712;4.800;2023-03-21T10:05:37;13.60;99.90
21646;DHT22;10984;45.712;4.800;2023-03-21T10:11:27;13.70;99.90
21646;DHT22;10984;45.712;4.800;2023-03-21T10:19:47;14.30;99.90
21646;DHT22;10984;45.712;4.800;2023-03-21T10:22:14;14.50;99.90
21646;DHT22;10984;45.712;4.800;2023-03-21T10:24:40;14.40;99.90
21646;DHT22;10984;45.712;4.800;2023-03-21T10:27:06;14.40;99.90
21646;DHT22;10984;45.712;4.800;2023-03-21T10:29:39;14.30;99.90
21646;DHT22;10984;45.712;4.800;2023-03-21T10:32:08;14.20;99.90
21646;DHT22;10984;45.712;4.800;2023-03-21T10:34:54;14.10;99.90
21646;DHT22;10984;45.712;4.800;2023-03-21T10:37:21;14.40;99.90
21646;DHT22;10984;45.712;4.800;2023-03-21T10:39:49;14.50;99.90
21646;DHT22;10984;45.712;4.800;2023-03-21T10:42:21;14.50;99.90
21646;DHT22;10984;45.712;4.800;2023-03-21T10:44:50;14.80;99.90
21646;DHT22;10984;45.712;4.800;2023-03-21T10:47:34;14.90;99.90
21646;DHT22;10984;45.712;4.800;2023-03-21T10:50:19;14.90;99.90
21646;DHT22;10984;45.712;4.800;2023-03-21T10:52:51;14.90;99.90
21646;DHT22;10984;45.712;4.800;2023-03-21T10:55:38;15.00;99.90
21646;DHT22;10984;45.712;4.800;2023-03-21T10:58:24;15.10;99.90
21646;DHT22;10984;45.712;4.800;2023-03-21T11:01:13;15.20;99.90
21646;DHT22;10984;45.712;4.800;2023-03-21T11:03:43;15.40;99.90
21646;DHT22;10984;45.712;4.800;2023-03-21T11:06:30;15.60;99.90
21646;DHT22;10984;45.712;4.800;2023-03-21T11:14:49;15.50;99.90
21646;DHT22;10984;45.712;4.800;2023-03-21T11:20:04;15.50;99.90
21646;DHT22;10984;45.712;4.800;2023-03-21T11:22:39;15.50;99.90
21646;DHT22;10984;45.712;4.800;2023-03-21T11:25:08;15.60;99.90
21646;DHT22;10984;45.712;4.800;2023-03-21T11:27:49;15.50;99.90
21646;DHT22;10984;45.712;4.800;2023-03-21T11:30:33;15.70;99.90
21646;DHT22;10984;45.712;4.800;2023-03-21T11:33:18;15.80;99.90
21646;DHT22;10984;45.712;4.800;2023-03-21T11:36:00;15.90;99.90
21646;DHT22;10984;45.712;4.800;2023-03-21T11:41:33;16.00;99.90
21646;DHT22;10984;45.712;4.800;2023-03-21T11:44:00;16.00;99.90
21646;DHT22;10984;45.712;4.800;2023-03-21T11:46:28;16.20;99.90
21646;DHT22;10984;45.712;4.800;2023-03-21T11:48:55;16.40;99.90
21646;DHT22;10984;45.712;4.800;2023-03-21T11:54:14;16.50;99.90
21646;DHT22;10984;45.712;4.800;2023-03-21T11:56:41;16.60;99.90
21646;DHT22;10984;45.712;4.800;2023-03-21T12:08:45;16.80;99.90
21646;DHT22;10984;45.712;4.800;2023-03-21T12:17:31;17.00;99.90
21646;DHT22;10984;45.712;4.800;2023-03-21T12:26:05;17.30;99.90
21646;DHT22;10984;45.712;4.800;2023-03-21T12:31:58;17.40;99.90
21646;DHT22;10984;45.712;4.800;2023-03-21T12:52:30;17.80;99.90
21646;DHT22;10984;45.712;4.800;2023-03-21T12:58:21;17.70;99.90
21646;DHT22;10984;45.712;4.800;2023-03-21T13:01:07;17.80;99.90
21646;DHT22;10984;45.712;4.800;2023-03-21T13:03:39;17.70;99.90
21646;DHT22;10984;45.712;4.800;2023-03-21T13:06:10;17.80;99.90
21646;DHT22;10984;45.712;4.800;2023-03-21T13:08:41;18.00;99.90
21646;DHT22;10984;45.712;4.800;2023-03-21T13:11:12;18.00;99.90
21646;DHT22;10984;45.712;4.800;2023-03-21T13:20:05;18.10;99.90
21646;DHT22;10984;45.712;4.800;2023-03-21T13:22:33;18.20;99.90
21646;DHT22;10984;45.712;4.800;2023-03-21T13:25:18;18.20;99.90
21646;DHT22;10984;45.712;4.800;2023-03-21T13:30:34;18.20;99.90
21646;DHT22;10984;45.712;4.800;2023-03-21T13:33:20;18.10;99.90
21646;DHT22;10984;45.712;4.800;2023-03-21T13:36:11;18.30;99.90
21646;DHT22;10984;45.712;4.800;2023-03-21T13:38:37;18.30;99.90
21646;DHT22;10984;45.712;4.800;2023-03-21T13:46:58;18.40;99.90
21646;DHT22;10984;45.712;4.800;2023-03-21T13:49:42;18.00;99.90
21646;DHT22;10984;45.712;4.800;2023-03-21T13:52:28;18.10;99.90
21646;DHT22;10984;45.712;4.800;2023-03-21T13:54:56;18.10;99.90
21646;DHT22;10984;45.712;4.800;2023-03-21T13:57:40;18.10;99.90
21646;DHT22;10984;45.712;4.800;2023-03-21T14:03:12;18.10;99.90
21646;DHT22;10984;45.712;4.800;2023-03-21T14:05:39;18.20;99.90
21646;DHT22;10984;45.712;4.800;2023-03-21T14:08:24;18.10;99.90
21646;DHT22;10984;45.712;4.800;2023-03-21T14:10:55;17.90;99.90
21646;DHT22;10984;45.712;4.800;2023-03-21T14:13:24;18.10;99.90
21646;DHT22;10984;45.712;4.800;2023-03-21T14:15:57;18.10;99.90
21646;DHT22;10984;45.712;4.800;2023-03-21T14:18:26;18.00;99.90
21646;DHT22;10984;45.712;4.800;2023-03-21T14:20:53;18.00;99.90
21646;DHT22;10984;45.712;4.800;2023-03-21T14:23:20;18.10;99.90
21646;DHT22;10984;45.712;4.800;2023-03-21T14:25:46;18.20;99.90
21646;DHT22;10984;45.712;4.800;2023-03-21T14:30:42;18.30;99.90
21646;DHT22;10984;45.712;4.800;2023-03-21T14:36:16;18.10;99.90
21646;DHT22;10984;45.712;4.800;2023-03-21T14:38:48;18.40;99.90
21646;DHT22;10984;45.712;4.800;2023-03-21T14:47:07;18.50;99.90
21646;DHT22;10984;45.712;4.800;2023-03-21T14:49:36;18.60;99.90
21646;DHT22;10984;45.712;4.800;2023-03-21T14:52:06;18.80;99.90
21646;DHT22;10984;45.712;4.800;2023-03-21T14:54:32;18.60;99.90
21646;DHT22;10984;45.712;4.800;2023-03-21T14:57:00;18.70;99.90
21646;DHT22;10984;45.712;4.800;2023-03-21T14:59:38;18.70;99.90
21646;DHT22;10984;45.712;4.800;2023-03-21T15:02:16;18.80;99.90
21646;DHT22;10984;45.712;4.800;2023-03-21T15:07:30;18.90;99.90
21646;DHT22;10984;45.712;4.800;2023-03-21T15:10:16;18.90;99.90
21646;DHT22;10984;45.712;4.800;2023-03-21T15:13:09;18.60;99.90
21646;DHT22;10984;45.712;4.800;2023-03-21T15:15:37;18.40;99.90
21646;DHT22;10984;45.712;4.800;2023-03-21T15:18:05;18.40;99.90
21646;DHT22;10984;45.712;4.800;2023-03-21T15:20:34;18.30;99.90
21646;DHT22;10984;45.712;4.800;2023-03-21T15:23:05;18.30;99.90
21646;DHT22;10984;45.712;4.800;2023-03-21T15:25:34;18.30;99.90
21646;DHT22;10984;45.712;4.800;2023-03-21T15:28:01;18.20;99.90
21646;DHT22;10984;45.712;4.800;2023-03-21T15:30:29;18.20;99.90
21646;DHT22;10984;45.712;4.800;2023-03-21T15:32:56;18.20;99.90
21646;DHT22;10984;45.712;4.800;2023-03-21T15:35:42;18.20;99.90
21646;DHT22;10984;45.712;4.800;2023-03-21T15:41:32;18.10;99.90
21646;DHT22;10984;45.712;4.800;2023-03-21T15:44:16;18.10;99.90
21646;DHT22;10984;45.712;4.800;2023-03-21T15:47:04;18.10;99.90
21646;DHT22;10984;45.712;4.800;2023-03-21T15:49:32;18.00;99.90
21646;DHT22;10984;45.712;4.800;2023-03-21T15:52:17;17.90;99.90
21646;DHT22;10984;45.712;4.800;2023-03-21T15:55:09;17.90;99.90
21646;DHT22;10984;45.712;4.800;2023-03-21T15:57:44;17.90;99.90
21646;DHT22;10984;45.712;4.800;2023-03-21T16:00:21;17.90;99.90
21646;DHT22;10984;45.712;4.800;2023-03-21T16:02:48;17.80;99.90
21646;DHT22;10984;45.712;4.800;2023-03-21T16:05:36;17.90;99.90
21646;DHT22;10984;45.712;4.800;2023-03-21T16:10:34;17.80;99.90
21646;DHT22;10984;45.712;4.800;2023-03-21T16:13:01;17.60;99.90
21646;DHT22;10984;45.712;4.800;2023-03-21T16:15:27;17.60;99.90
21646;DHT22;10984;45.712;4.800;2023-03-21T16:17:56;17.50;99.90
21646;DHT22;10984;45.712;4.800;2023-03-21T16:20:25;17.30;99.90
21646;DHT22;10984;45.712;4.800;2023-03-21T16:22:51;17.20;99.90
21646;DHT22;10984;45.712;4.800;2023-03-21T16:25:17;17.20;99.90
21646;DHT22;10984;45.712;4.800;2023-03-21T16:27:44;17.10;99.90
21646;DHT22;10984;45.712;4.800;2023-03-21T16:30:12;17.00;99.90
21646;DHT22;10984;45.712;4.800;2023-03-21T16:32:38;16.90;99.90
21646;DHT22;10984;45.712;4.800;2023-03-21T16:35:04;16.80;99.90
21646;DHT22;10984;45.712;4.800;2023-03-21T16:37:31;16.70;99.90
21646;DHT22;10984;45.712;4.800;2023-03-21T16:39:57;16.70;99.90
21646;DHT22;10984;45.712;4.800;2023-03-21T16:42:22;16.60;99.90
21646;DHT22;10984;45.712;4.800;2023-03-21T16:44:48;16.60;99.90
21646;DHT22;10984;45.712;4.800;2023-03-21T16:47:16;16.60;99.90
21646;DHT22;10984;45.712;4.800;2023-03-21T16:49:42;16.60;99.90
21646;DHT22;10984;45.712;4.800;2023-03-21T16:52:09;16.70;99.90
21646;DHT22;10984;45.712;4.800;2023-03-21T16:54:36;16.70;99.90
21646;DHT22;10984;45.712;4.800;2023-03-21T16:57:04;16.70;99.90
21646;DHT22;10984;45.712;4.800;2023-03-21T16:59:32;16.70;99.90
21646;DHT22;10984;45.712;4.800;2023-03-21T17:01:58;16.70;99.90
21646;DHT22;10984;45.712;4.800;2023-03-21T17:04:24;16.50;99.90
21646;DHT22;10984;45.712;4.800;2023-03-21T17:06:52;16.50;99.90
21646;DHT22;10984;45.712;4.800;2023-03-21T17:09:21;16.40;99.90
21646;DHT22;10984;45.712;4.800;2023-03-21T17:11:48;16.30;99.90
21646;DHT22;10984;45.712;4.800;2023-03-21T17:14:14;16.20;99.90
21646;DHT22;10984;45.712;4.800;2023-03-21T17:16:58;16.10;99.90
21646;DHT22;10984;45.712;4.800;2023-03-21T17:19:25;16.00;99.90
21646;DHT22;10984;45.712;4.800;2023-03-21T17:21:52;15.90;99.90
21646;DHT22;10984;45.712;4.800;2023-03-21T17:24:19;15.80;99.90
21646;DHT22;10984;45.712;4.800;2023-03-21T17:26:45;15.70;99.90
21646;DHT22;10984;45.712;4.800;2023-03-21T17:29:29;15.60;99.90
21646;DHT22;10984;45.712;4.800;2023-03-21T17:31:55;15.50;99.90
21646;DHT22;10984;45.712;4.800;2023-03-21T17:34:21;15.40;99.90
21646;DHT22;10984;45.712;4.800;2023-03-21T17:36:47;15.20;99.90
21646;DHT22;10984;45.712;4.800;2023-03-21T17:39:32;15.20;99.90
21646;DHT22;10984;45.712;4.800;2023-03-21T17:41:57;15.10;99.90
21646;DHT22;10984;45.712;4.800;2023-03-21T17:44:23;14.90;99.90
21646;DHT22;10984;45.712;4.800;2023-03-21T17:46:49;14.90;99.90
21646;DHT22;10984;45.712;4.800;2023-03-21T17:49:15;14.80;99.90
21646;DHT22;10984;45.712;4.800;2023-03-21T17:51:41;14.70;99.90
21646;DHT22;10984;45.712;4.800;2023-03-21T17:54:07;14.60;99.90
21646;DHT22;10984;45.712;4.800;2023-03-21T17:56:34;14.60;99.90
21646;DHT22;10984;45.712;4.800;2023-03-21T17:59:06;14.50;99.90
21646;DHT22;10984;45.712;4.800;2023-03-21T18:01:33;14.40;99.90
21646;DHT22;10984;45.712;4.800;2023-03-21T18:04:00;14.30;99.90
21646;DHT22;10984;45.712;4.800;2023-03-21T18:06:29;14.30;99.90
21646;DHT22;10984;45.712;4.800;2023-03-21T18:08:55;14.20;99.90
21646;DHT22;10984;45.712;4.800;2023-03-21T18:11:22;14.20;99.90
21646;DHT22;10984;45.712;4.800;2023-03-21T18:13:48;14.10;99.90
21646;DHT22;10984;45.712;4.800;2023-03-21T18:16:17;14.10;99.90
21646;DHT22;10984;45.712;4.800;2023-03-21T18:18:43;14.00;99.90
21646;DHT22;10984;45.712;4.800;2023-03-21T18:21:13;13.90;99.90
21646;DHT22;10984;45.712;4.800;2023-03-21T18:23:41;13.90;99.90
21646;DHT22;10984;45.712;4.800;2023-03-21T18:26:08;13.80;99.90
21646;DHT22;10984;45.712;4.800;2023-03-21T18:28:36;13.70;99.90
21646;DHT22;10984;45.712;4.800;2023-03-21T18:31:20;13.60;99.90
21646;DHT22;10984;45.712;4.800;2023-03-21T18:33:47;13.60;99.90
21646;DHT22;10984;45.712;4.800;2023-03-21T18:36:16;13.50;99.90
21646;DHT22;10984;45.712;4.800;2023-03-21T18:38:42;13.50;99.90
21646;DHT22;10984;45.712;4.800;2023-03-21T18:41:08;13.40;99.90
21646;DHT22;10984;45.712;4.800;2023-03-21T18:43:35;13.40;99.90
21646;DHT22;10984;45.712;4.800;2023-03-21T18:46:02;13.30;99.90
21646;DHT22;10984;45.712;4.800;2023-03-21T18:48:28;13.30;99.90
21646;DHT22;10984;45.712;4.800;2023-03-21T18:50:53;13.30;99.90
21646;DHT22;10984;45.712;4.800;2023-03-21T18:53:19;13.30;99.90
21646;DHT22;10984;45.712;4.800;2023-03-21T18:55:46;13.30;99.90
21646;DHT22;10984;45.712;4.800;2023-03-21T18:58:12;13.20;99.90
21646;DHT22;10984;45.712;4.800;2023-03-21T19:00:39;13.20;99.90
21646;DHT22;10984;45.712;4.800;2023-03-21T19:03:06;13.20;99.90